CheckWX is a tool to help pilots better visualize weather data.  It is not intended as a substitute for an official pre-flight weather briefing.

17:55:14 UTC

CYED METAR
Edmonton (CFB Namao) Heliport
Edmonton, Canada
Current

55 mins ago

CYED 171700Z AUTO 29008G15KT 9SM FEW097 07/02 A2928 RMK SLP927
Observed
Oct-17 @ 17:00 UTC
Wind
  • 290° at 8 KTS
  • Gusting to 15 KTS
Visibility
9 SM
Flight Rules
VFR
Cloud Levels
  • Few at 9,700' AGL
Temperature
C / 45°F
Dewpoint
C / 36°F
Humidity
71%
Altimeter
29.28" Hg
Pressure
991.52 hPa
Previous

59 mins ago

CYED 171656Z AUTO 29009G15KT 9SM FEW097 07/02 A2928
Observed
Oct-17 @ 16:56 UTC
Wind
  • 290° at 9 KTS
  • Gusting to 15 KTS
Visibility
9 SM
Flight Rules
VFR
Cloud Levels
  • Few at 9,700' AGL
Temperature
C / 45°F
Dewpoint
C / 36°F
Humidity
71%
Altimeter
29.28" Hg
Pressure
991.52 hPa
Previous

1 hour ago

CYED 171642Z AUTO 30006KT 9SM FEW097 07/03 A2928
Observed
Oct-17 @ 16:42 UTC
Wind
  • 300° at 6 KTS
Visibility
9 SM
Flight Rules
VFR
Cloud Levels
  • Few at 9,700' AGL
Temperature
C / 45°F
Dewpoint
C / 37°F
Humidity
76%
Altimeter
29.28" Hg
Pressure
991.52 hPa